sensor_id;sensor_type;location;lat;lon;timestamp;P1;durP1;ratioP1;P2;durP2;ratioP2
5912;SDS011;2982;42.684;23.356;2023-04-24T00:02:07;4.30;;;2.58;;
5912;SDS011;2982;42.684;23.356;2023-04-24T00:04:33;4.90;;;3.47;;
5912;SDS011;2982;42.684;23.356;2023-04-24T00:06:58;3.78;;;3.03;;
5912;SDS011;2982;42.684;23.356;2023-04-24T00:09:23;5.88;;;3.22;;
5912;SDS011;2982;42.684;23.356;2023-04-24T00:11:48;5.28;;;3.53;;
5912;SDS011;2982;42.684;23.356;2023-04-24T00:14:14;3.55;;;3.30;;
5912;SDS011;2982;42.684;23.356;2023-04-24T00:16:40;3.28;;;2.97;;
5912;SDS011;2982;42.684;23.356;2023-04-24T00:19:06;3.90;;;3.58;;
5912;SDS011;2982;42.684;23.356;2023-04-24T00:21:31;3.33;;;3.08;;
5912;SDS011;2982;42.684;23.356;2023-04-24T00:23:56;3.85;;;3.50;;
5912;SDS011;2982;42.684;23.356;2023-04-24T00:26:21;4.90;;;3.17;;
5912;SDS011;2982;42.684;23.356;2023-04-24T00:28:47;4.15;;;3.53;;
5912;SDS011;2982;42.684;23.356;2023-04-24T00:31:12;4.53;;;3.90;;
5912;SDS011;2982;42.684;23.356;2023-04-24T00:33:37;6.03;;;4.57;;
5912;SDS011;2982;42.684;23.356;2023-04-24T00:36:03;3.75;;;3.45;;
5912;SDS011;2982;42.684;23.356;2023-04-24T00:38:28;4.97;;;3.67;;
5912;SDS011;2982;42.684;23.356;2023-04-24T00:40:53;4.13;;;3.92;;
5912;SDS011;2982;42.684;23.356;2023-04-24T00:43:19;3.53;;;3.22;;
5912;SDS011;2982;42.684;23.356;2023-04-24T00:45:44;4.65;;;3.72;;
5912;SDS011;2982;42.684;23.356;2023-04-24T00:48:10;4.60;;;3.55;;
5912;SDS011;2982;42.684;23.356;2023-04-24T00:50:36;4.47;;;4.13;;
5912;SDS011;2982;42.684;23.356;2023-04-24T00:53:03;4.03;;;3.63;;
5912;SDS011;2982;42.684;23.356;2023-04-24T00:55:28;4.03;;;3.63;;
5912;SDS011;2982;42.684;23.356;2023-04-24T00:57:54;3.97;;;3.58;;
5912;SDS011;2982;42.684;23.356;2023-04-24T01:00:20;3.50;;;3.20;;
5912;SDS011;2982;42.684;23.356;2023-04-24T01:02:46;4.30;;;3.92;;
5912;SDS011;2982;42.684;23.356;2023-04-24T01:05:13;6.85;;;3.88;;
5912;SDS011;2982;42.684;23.356;2023-04-24T01:07:39;4.30;;;3.90;;
5912;SDS011;2982;42.684;23.356;2023-04-24T01:10:06;6.38;;;4.20;;
5912;SDS011;2982;42.684;23.356;2023-04-24T01:12:32;4.10;;;3.53;;
5912;SDS011;2982;42.684;23.356;2023-04-24T01:14:57;4.05;;;3.65;;
5912;SDS011;2982;42.684;23.356;2023-04-24T01:17:23;4.00;;;3.70;;
5912;SDS011;2982;42.684;23.356;2023-04-24T01:19:48;6.25;;;3.80;;
5912;SDS011;2982;42.684;23.356;2023-04-24T01:22:14;4.15;;;3.83;;
5912;SDS011;2982;42.684;23.356;2023-04-24T01:24:40;4.30;;;3.38;;
5912;SDS011;2982;42.684;23.356;2023-04-24T01:27:07;4.68;;;4.25;;
5912;SDS011;2982;42.684;23.356;2023-04-24T01:29:33;4.03;;;3.72;;
5912;SDS011;2982;42.684;23.356;2023-04-24T01:31:59;3.58;;;3.33;;
5912;SDS011;2982;42.684;23.356;2023-04-24T01:34:24;4.30;;;3.40;;
5912;SDS011;2982;42.684;23.356;2023-04-24T01:36:50;9.80;;;3.45;;
5912;SDS011;2982;42.684;23.356;2023-04-24T01:39:15;3.88;;;3.58;;
5912;SDS011;2982;42.684;23.356;2023-04-24T01:41:41;4.28;;;3.92;;
5912;SDS011;2982;42.684;23.356;2023-04-24T01:44:06;5.00;;;4.18;;
5912;SDS011;2982;42.684;23.356;2023-04-24T01:46:32;3.58;;;3.28;;
5912;SDS011;2982;42.684;23.356;2023-04-24T01:48:58;4.15;;;3.78;;
5912;SDS011;2982;42.684;23.356;2023-04-24T01:54:26;6.32;;;4.00;;
5912;SDS011;2982;42.684;23.356;2023-04-24T01:56:51;4.65;;;3.60;;
5912;SDS011;2982;42.684;23.356;2023-04-24T01:59:17;8.55;;;3.78;;
5912;SDS011;2982;42.684;23.356;2023-04-24T02:01:42;5.70;;;4.45;;
5912;SDS011;2982;42.684;23.356;2023-04-24T02:04:08;7.55;;;4.47;;
5912;SDS011;2982;42.684;23.356;2023-04-24T02:06:33;7.10;;;4.53;;
5912;SDS011;2982;42.684;23.356;2023-04-24T02:08:58;5.22;;;4.72;;
5912;SDS011;2982;42.684;23.356;2023-04-24T02:11:24;4.72;;;4.43;;
5912;SDS011;2982;42.684;23.356;2023-04-24T02:13:50;8.65;;;4.80;;
5912;SDS011;2982;42.684;23.356;2023-04-24T02:16:15;7.60;;;4.50;;
5912;SDS011;2982;42.684;23.356;2023-04-24T02:18:40;8.63;;;5.18;;
5912;SDS011;2982;42.684;23.356;2023-04-24T02:21:06;5.18;;;4.40;;
5912;SDS011;2982;42.684;23.356;2023-04-24T02:23:31;7.45;;;4.57;;
5912;SDS011;2982;42.684;23.356;2023-04-24T02:25:56;5.07;;;4.57;;
5912;SDS011;2982;42.684;23.356;2023-04-24T02:28:22;7.55;;;4.93;;
5912;SDS011;2982;42.684;23.356;2023-04-24T02:30:47;5.28;;;4.72;;
5912;SDS011;2982;42.684;23.356;2023-04-24T02:33:12;4.45;;;4.05;;
5912;SDS011;2982;42.684;23.356;2023-04-24T02:35:37;5.90;;;4.72;;
5912;SDS011;2982;42.684;23.356;2023-04-24T02:38:03;5.32;;;4.90;;
5912;SDS011;2982;42.684;23.356;2023-04-24T02:40:29;4.80;;;4.50;;
5912;SDS011;2982;42.684;23.356;2023-04-24T02:42:54;6.60;;;5.72;;
5912;SDS011;2982;42.684;23.356;2023-04-24T02:45:19;6.85;;;4.80;;
5912;SDS011;2982;42.684;23.356;2023-04-24T02:47:45;7.25;;;5.05;;
5912;SDS011;2982;42.684;23.356;2023-04-24T02:50:10;5.43;;;4.95;;
5912;SDS011;2982;42.684;23.356;2023-04-24T02:52:35;6.38;;;5.05;;
5912;SDS011;2982;42.684;23.356;2023-04-24T02:55:01;10.30;;;5.57;;
5912;SDS011;2982;42.684;23.356;2023-04-24T03:00:32;5.00;;;4.60;;
5912;SDS011;2982;42.684;23.356;2023-04-24T03:02:57;7.75;;;5.55;;
5912;SDS011;2982;42.684;23.356;2023-04-24T03:05:22;9.25;;;4.90;;
5912;SDS011;2982;42.684;23.356;2023-04-24T03:07:48;6.72;;;5.82;;
5912;SDS011;2982;42.684;23.356;2023-04-24T03:10:13;9.27;;;5.20;;
5912;SDS011;2982;42.684;23.356;2023-04-24T03:12:38;7.53;;;6.15;;
5912;SDS011;2982;42.684;23.356;2023-04-24T03:15:04;5.68;;;5.20;;
5912;SDS011;2982;42.684;23.356;2023-04-24T03:17:29;6.03;;;5.45;;
5912;SDS011;2982;42.684;23.356;2023-04-24T03:19:55;7.82;;;5.47;;
5912;SDS011;2982;42.684;23.356;2023-04-24T03:22:20;5.50;;;5.00;;
5912;SDS011;2982;42.684;23.356;2023-04-24T03:24:45;6.50;;;5.60;;
5912;SDS011;2982;42.684;23.356;2023-04-24T03:27:11;9.13;;;5.45;;
5912;SDS011;2982;42.684;23.356;2023-04-24T03:29:36;8.90;;;6.15;;
5912;SDS011;2982;42.684;23.356;2023-04-24T03:32:01;11.18;;;6.43;;
5912;SDS011;2982;42.684;23.356;2023-04-24T03:34:26;7.55;;;5.90;;
5912;SDS011;2982;42.684;23.356;2023-04-24T03:36:52;6.60;;;5.68;;
5912;SDS011;2982;42.684;23.356;2023-04-24T03:39:17;8.88;;;5.78;;
5912;SDS011;2982;42.684;23.356;2023-04-24T03:41:42;9.68;;;5.85;;
5912;SDS011;2982;42.684;23.356;2023-04-24T03:44:07;7.33;;;6.23;;
5912;SDS011;2982;42.684;23.356;2023-04-24T03:46:33;11.30;;;5.85;;
5912;SDS011;2982;42.684;23.356;2023-04-24T03:48:58;6.45;;;5.88;;
5912;SDS011;2982;42.684;23.356;2023-04-24T03:51:23;12.82;;;6.05;;
5912;SDS011;2982;42.684;23.356;2023-04-24T03:53:49;10.40;;;5.72;;
5912;SDS011;2982;42.684;23.356;2023-04-24T03:56:14;6.93;;;6.13;;
5912;SDS011;2982;42.684;23.356;2023-04-24T03:58:39;6.53;;;5.47;;
5912;SDS011;2982;42.684;23.356;2023-04-24T04:01:05;8.60;;;5.80;;
5912;SDS011;2982;42.684;23.356;2023-04-24T04:03:30;8.10;;;6.90;;
5912;SDS011;2982;42.684;23.356;2023-04-24T04:05:55;9.52;;;6.22;;
5912;SDS011;2982;42.684;23.356;2023-04-24T04:08:21;5.45;;;5.05;;
5912;SDS011;2982;42.684;23.356;2023-04-24T04:10:46;6.65;;;5.50;;
5912;SDS011;2982;42.684;23.356;2023-04-24T04:13:11;10.80;;;6.65;;
5912;SDS011;2982;42.684;23.356;2023-04-24T04:15:37;6.93;;;4.93;;
5912;SDS011;2982;42.684;23.356;2023-04-24T04:18:02;6.20;;;4.20;;
5912;SDS011;2982;42.684;23.356;2023-04-24T04:20:27;8.50;;;4.05;;
5912;SDS011;2982;42.684;23.356;2023-04-24T04:22:53;3.92;;;3.63;;
5912;SDS011;2982;42.684;23.356;2023-04-24T04:25:18;4.30;;;3.95;;
5912;SDS011;2982;42.684;23.356;2023-04-24T04:27:43;4.82;;;3.75;;
5912;SDS011;2982;42.684;23.356;2023-04-24T04:30:09;5.13;;;3.40;;
5912;SDS011;2982;42.684;23.356;2023-04-24T04:32:34;3.40;;;3.20;;
5912;SDS011;2982;42.684;23.356;2023-04-24T04:35:00;5.20;;;3.35;;
5912;SDS011;2982;42.684;23.356;2023-04-24T04:40:17;3.47;;;3.17;;
5912;SDS011;2982;42.684;23.356;2023-04-24T04:42:42;6.65;;;4.20;;
5912;SDS011;2982;42.684;23.356;2023-04-24T04:45:08;4.35;;;3.70;;
5912;SDS011;2982;42.684;23.356;2023-04-24T04:47:33;5.13;;;3.63;;
5912;SDS011;2982;42.684;23.356;2023-04-24T04:49:59;4.22;;;3.92;;
5912;SDS011;2982;42.684;23.356;2023-04-24T04:52:24;5.35;;;4.15;;
5912;SDS011;2982;42.684;23.356;2023-04-24T04:54:50;4.93;;;4.05;;
5912;SDS011;2982;42.684;23.356;2023-04-24T04:57:15;4.57;;;4.18;;
5912;SDS011;2982;42.684;23.356;2023-04-24T04:59:40;4.95;;;4.20;;
5912;SDS011;2982;42.684;23.356;2023-04-24T05:02:06;4.30;;;3.38;;
5912;SDS011;2982;42.684;23.356;2023-04-24T05:04:31;5.20;;;3.88;;
5912;SDS011;2982;42.684;23.356;2023-04-24T05:06:56;4.25;;;3.85;;
5912;SDS011;2982;42.684;23.356;2023-04-24T05:09:21;4.40;;;4.05;;
5912;SDS011;2982;42.684;23.356;2023-04-24T05:11:47;5.25;;;4.28;;
5912;SDS011;2982;42.684;23.356;2023-04-24T05:14:12;5.13;;;4.28;;
5912;SDS011;2982;42.684;23.356;2023-04-24T05:16:38;5.38;;;4.88;;
5912;SDS011;2982;42.684;23.356;2023-04-24T05:19:04;5.32;;;4.50;;
5912;SDS011;2982;42.684;23.356;2023-04-24T05:21:29;4.15;;;3.85;;
5912;SDS011;2982;42.684;23.356;2023-04-24T05:23:54;4.72;;;4.43;;
5912;SDS011;2982;42.684;23.356;2023-04-24T05:26:20;5.93;;;4.45;;
5912;SDS011;2982;42.684;23.356;2023-04-24T05:28:45;7.93;;;5.20;;
5912;SDS011;2982;42.684;23.356;2023-04-24T05:31:10;5.18;;;4.63;;
5912;SDS011;2982;42.684;23.356;2023-04-24T05:33:36;5.53;;;4.72;;
5912;SDS011;2982;42.684;23.356;2023-04-24T05:36:01;6.05;;;4.47;;
5912;SDS011;2982;42.684;23.356;2023-04-24T05:38:26;6.05;;;5.45;;
5912;SDS011;2982;42.684;23.356;2023-04-24T05:40:51;10.10;;;5.95;;
5912;SDS011;2982;42.684;23.356;2023-04-24T05:43:17;10.52;;;5.43;;
5912;SDS011;2982;42.684;23.356;2023-04-24T05:45:42;8.65;;;6.10;;
5912;SDS011;2982;42.684;23.356;2023-04-24T05:48:07;8.73;;;6.22;;
5912;SDS011;2982;42.684;23.356;2023-04-24T05:50:33;6.35;;;5.88;;
5912;SDS011;2982;42.684;23.356;2023-04-24T05:52:58;11.70;;;6.03;;
5912;SDS011;2982;42.684;23.356;2023-04-24T05:55:24;12.15;;;6.43;;
5912;SDS011;2982;42.684;23.356;2023-04-24T05:57:50;7.65;;;6.47;;
5912;SDS011;2982;42.684;23.356;2023-04-24T06:00:15;10.15;;;6.05;;
5912;SDS011;2982;42.684;23.356;2023-04-24T06:02:41;10.23;;;6.07;;
5912;SDS011;2982;42.684;23.356;2023-04-24T06:05:06;8.60;;;6.38;;
5912;SDS011;2982;42.684;23.356;2023-04-24T06:07:32;7.00;;;6.32;;
5912;SDS011;2982;42.684;23.356;2023-04-24T06:09:57;12.68;;;6.97;;
5912;SDS011;2982;42.684;23.356;2023-04-24T06:12:22;12.45;;;7.13;;
5912;SDS011;2982;42.684;23.356;2023-04-24T06:14:47;8.35;;;7.63;;
5912;SDS011;2982;42.684;23.356;2023-04-24T06:17:13;11.07;;;6.93;;
5912;SDS011;2982;42.684;23.356;2023-04-24T06:19:38;10.25;;;6.57;;
5912;SDS011;2982;42.684;23.356;2023-04-24T06:22:04;7.97;;;7.25;;
5912;SDS011;2982;42.684;23.356;2023-04-24T06:24:29;11.75;;;6.20;;
5912;SDS011;2982;42.684;23.356;2023-04-24T06:26:55;9.20;;;6.55;;
5912;SDS011;2982;42.684;23.356;2023-04-24T06:29:21;6.95;;;6.25;;
5912;SDS011;2982;42.684;23.356;2023-04-24T06:31:47;8.00;;;6.45;;
5912;SDS011;2982;42.684;23.356;2023-04-24T06:34:12;7.53;;;6.13;;
5912;SDS011;2982;42.684;23.356;2023-04-24T06:36:37;9.90;;;5.68;;
5912;SDS011;2982;42.684;23.356;2023-04-24T06:39:03;11.05;;;6.57;;
5912;SDS011;2982;42.684;23.356;2023-04-24T06:41:28;14.70;;;6.47;;
5912;SDS011;2982;42.684;23.356;2023-04-24T06:43:54;10.02;;;7.05;;
5912;SDS011;2982;42.684;23.356;2023-04-24T06:46:19;8.93;;;6.35;;
5912;SDS011;2982;42.684;23.356;2023-04-24T06:48:44;10.20;;;6.85;;
5912;SDS011;2982;42.684;23.356;2023-04-24T06:51:10;8.40;;;6.20;;
5912;SDS011;2982;42.684;23.356;2023-04-24T06:53:35;9.57;;;6.25;;
5912;SDS011;2982;42.684;23.356;2023-04-24T06:56:00;10.75;;;6.78;;
5912;SDS011;2982;42.684;23.356;2023-04-24T06:58:26;14.93;;;6.97;;
5912;SDS011;2982;42.684;23.356;2023-04-24T07:00:51;8.65;;;6.78;;
5912;SDS011;2982;42.684;23.356;2023-04-24T07:03:16;6.68;;;6.20;;
5912;SDS011;2982;42.684;23.356;2023-04-24T07:05:41;7.75;;;6.93;;
5912;SDS011;2982;42.684;23.356;2023-04-24T07:08:07;11.95;;;9.75;;
5912;SDS011;2982;42.684;23.356;2023-04-24T07:10:32;10.20;;;7.68;;
5912;SDS011;2982;42.684;23.356;2023-04-24T07:12:57;6.43;;;6.03;;
5912;SDS011;2982;42.684;23.356;2023-04-24T07:15:23;5.63;;;5.18;;
5912;SDS011;2982;42.684;23.356;2023-04-24T07:17:48;8.60;;;6.57;;
5912;SDS011;2982;42.684;23.356;2023-04-24T07:20:14;7.15;;;6.45;;
5912;SDS011;2982;42.684;23.356;2023-04-24T07:22:39;7.65;;;6.50;;
5912;SDS011;2982;42.684;23.356;2023-04-24T07:25:05;10.32;;;6.70;;
5912;SDS011;2982;42.684;23.356;2023-04-24T07:27:31;7.13;;;6.57;;
5912;SDS011;2982;42.684;23.356;2023-04-24T07:29:57;7.97;;;6.05;;
5912;SDS011;2982;42.684;23.356;2023-04-24T07:32:22;14.20;;;7.22;;
5912;SDS011;2982;42.684;23.356;2023-04-24T07:34:47;6.97;;;6.32;;
5912;SDS011;2982;42.684;23.356;2023-04-24T07:37:12;6.78;;;6.18;;
5912;SDS011;2982;42.684;23.356;2023-04-24T07:39:38;11.68;;;6.90;;
5912;SDS011;2982;42.684;23.356;2023-04-24T07:42:03;8.25;;;7.03;;
5912;SDS011;2982;42.684;23.356;2023-04-24T07:44:28;7.03;;;6.43;;
5912;SDS011;2982;42.684;23.356;2023-04-24T07:46:54;7.07;;;6.32;;
5912;SDS011;2982;42.684;23.356;2023-04-24T07:49:20;8.07;;;6.55;;
5912;SDS011;2982;42.684;23.356;2023-04-24T07:51:46;10.80;;;4.78;;
5912;SDS011;2982;42.684;23.356;2023-04-24T07:54:11;6.57;;;6.07;;
5912;SDS011;2982;42.684;23.356;2023-04-24T07:56:36;8.25;;;5.68;;
5912;SDS011;2982;42.684;23.356;2023-04-24T07:59:02;6.50;;;5.90;;
5912;SDS011;2982;42.684;23.356;2023-04-24T08:01:27;7.80;;;6.03;;
5912;SDS011;2982;42.684;23.356;2023-04-24T08:03:52;5.55;;;5.00;;
5912;SDS011;2982;42.684;23.356;2023-04-24T08:06:17;5.93;;;5.40;;
5912;SDS011;2982;42.684;23.356;2023-04-24T08:08:43;7.78;;;6.28;;
5912;SDS011;2982;42.684;23.356;2023-04-24T08:11:08;7.28;;;6.68;;
5912;SDS011;2982;42.684;23.356;2023-04-24T08:13:33;8.02;;;5.80;;
5912;SDS011;2982;42.684;23.356;2023-04-24T08:15:59;5.75;;;5.35;;
5912;SDS011;2982;42.684;23.356;2023-04-24T08:18:24;5.50;;;5.00;;
5912;SDS011;2982;42.684;23.356;2023-04-24T08:20:49;6.38;;;5.30;;
5912;SDS011;2982;42.684;23.356;2023-04-24T08:23:14;6.18;;;5.43;;
5912;SDS011;2982;42.684;23.356;2023-04-24T08:25:40;10.13;;;6.03;;
5912;SDS011;2982;42.684;23.356;2023-04-24T08:28:05;9.18;;;4.93;;
5912;SDS011;2982;42.684;23.356;2023-04-24T08:30:33;7.13;;;4.70;;
5912;SDS011;2982;42.684;23.356;2023-04-24T08:32:58;5.25;;;4.85;;
5912;SDS011;2982;42.684;23.356;2023-04-24T08:35:24;6.32;;;5.43;;
5912;SDS011;2982;42.684;23.356;2023-04-24T08:37:49;7.88;;;4.95;;
5912;SDS011;2982;42.684;23.356;2023-04-24T08:40:15;7.47;;;4.95;;
5912;SDS011;2982;42.684;23.356;2023-04-24T08:42:41;5.07;;;4.38;;
5912;SDS011;2982;42.684;23.356;2023-04-24T08:45:08;5.20;;;4.90;;
5912;SDS011;2982;42.684;23.356;2023-04-24T08:47:34;5.63;;;4.32;;
5912;SDS011;2982;42.684;23.356;2023-04-24T08:50:00;5.13;;;4.72;;
5912;SDS011;2982;42.684;23.356;2023-04-24T08:52:27;5.47;;;4.97;;
5912;SDS011;2982;42.684;23.356;2023-04-24T08:54:53;8.52;;;4.85;;
5912;SDS011;2982;42.684;23.356;2023-04-24T08:57:18;6.80;;;4.47;;
5912;SDS011;2982;42.684;23.356;2023-04-24T08:59:44;5.22;;;3.83;;
5912;SDS011;2982;42.684;23.356;2023-04-24T09:02:10;6.82;;;5.35;;
5912;SDS011;2982;42.684;23.356;2023-04-24T09:04:37;5.13;;;4.63;;
5912;SDS011;2982;42.684;23.356;2023-04-24T09:07:06;4.47;;;3.72;;
5912;SDS011;2982;42.684;23.356;2023-04-24T09:09:33;4.55;;;4.13;;
5912;SDS011;2982;42.684;23.356;2023-04-24T09:11:59;8.25;;;4.72;;
5912;SDS011;2982;42.684;23.356;2023-04-24T09:14:25;6.45;;;4.32;;
5912;SDS011;2982;42.684;23.356;2023-04-24T09:16:51;8.95;;;5.97;;
5912;SDS011;2982;42.684;23.356;2023-04-24T09:19:16;5.65;;;4.90;;
5912;SDS011;2982;42.684;23.356;2023-04-24T09:21:42;4.70;;;3.50;;
5912;SDS011;2982;42.684;23.356;2023-04-24T09:24:18;5.90;;;4.47;;
5912;SDS011;2982;42.684;23.356;2023-04-24T09:26:44;4.72;;;4.28;;
5912;SDS011;2982;42.684;23.356;2023-04-24T09:29:16;5.88;;;3.95;;
5912;SDS011;2982;42.684;23.356;2023-04-24T09:31:43;8.80;;;4.70;;
5912;SDS011;2982;42.684;23.356;2023-04-24T09:34:09;4.38;;;3.97;;
5912;SDS011;2982;42.684;23.356;2023-04-24T09:36:35;4.30;;;3.95;;
5912;SDS011;2982;42.684;23.356;2023-04-24T09:39:03;6.32;;;4.88;;
5912;SDS011;2982;42.684;23.356;2023-04-24T09:41:31;3.85;;;3.55;;
5912;SDS011;2982;42.684;23.356;2023-04-24T09:43:58;4.45;;;4.00;;
5912;SDS011;2982;42.684;23.356;2023-04-24T09:46:36;4.38;;;3.75;;
5912;SDS011;2982;42.684;23.356;2023-04-24T09:49:08;5.07;;;3.63;;
5912;SDS011;2982;42.684;23.356;2023-04-24T09:51:35;4.70;;;4.00;;
5912;SDS011;2982;42.684;23.356;2023-04-24T09:54:02;4.57;;;3.70;;
5912;SDS011;2982;42.684;23.356;2023-04-24T09:56:32;5.07;;;3.28;;
5912;SDS011;2982;42.684;23.356;2023-04-24T09:59:07;5.97;;;4.05;;
5912;SDS011;2982;42.684;23.356;2023-04-24T10:01:32;5.38;;;3.40;;
5912;SDS011;2982;42.684;23.356;2023-04-24T10:03:58;4.40;;;3.63;;
5912;SDS011;2982;42.684;23.356;2023-04-24T10:06:29;5.82;;;4.00;;
5912;SDS011;2982;42.684;23.356;2023-04-24T10:08:57;6.88;;;3.60;;
5912;SDS011;2982;42.684;23.356;2023-04-24T10:11:24;5.50;;;3.95;;
5912;SDS011;2982;42.684;23.356;2023-04-24T10:13:51;6.60;;;4.30;;
5912;SDS011;2982;42.684;23.356;2023-04-24T10:16:17;6.28;;;3.70;;
5912;SDS011;2982;42.684;23.356;2023-04-24T10:18:43;7.25;;;3.70;;
5912;SDS011;2982;42.684;23.356;2023-04-24T10:21:09;6.70;;;4.07;;
5912;SDS011;2982;42.684;23.356;2023-04-24T10:23:35;7.85;;;3.45;;
5912;SDS011;2982;42.684;23.356;2023-04-24T10:26:01;4.93;;;3.60;;
5912;SDS011;2982;42.684;23.356;2023-04-24T10:28:26;3.67;;;3.47;;
5912;SDS011;2982;42.684;23.356;2023-04-24T10:30:52;4.57;;;3.63;;
5912;SDS011;2982;42.684;23.356;2023-04-24T10:33:19;6.05;;;4.32;;
5912;SDS011;2982;42.684;23.356;2023-04-24T10:35:45;4.20;;;3.80;;
5912;SDS011;2982;42.684;23.356;2023-04-24T10:38:13;3.88;;;3.40;;
5912;SDS011;2982;42.684;23.356;2023-04-24T10:40:41;4.57;;;3.33;;
5912;SDS011;2982;42.684;23.356;2023-04-24T10:43:08;6.53;;;3.60;;
5912;SDS011;2982;42.684;23.356;2023-04-24T10:45:33;4.47;;;3.83;;
5912;SDS011;2982;42.684;23.356;2023-04-24T10:48:01;6.28;;;3.17;;
5912;SDS011;2982;42.684;23.356;2023-04-24T10:50:28;6.15;;;3.67;;
5912;SDS011;2982;42.684;23.356;2023-04-24T10:53:06;5.55;;;3.67;;
5912;SDS011;2982;42.684;23.356;2023-04-24T10:55:40;5.20;;;3.50;;
5912;SDS011;2982;42.684;23.356;2023-04-24T10:58:16;3.70;;;3.30;;
5912;SDS011;2982;42.684;23.356;2023-04-24T11:00:55;3.67;;;3.35;;
5912;SDS011;2982;42.684;23.356;2023-04-24T11:03:28;4.10;;;3.40;;
5912;SDS011;2982;42.684;23.356;2023-04-24T11:05:58;5.25;;;3.78;;
5912;SDS011;2982;42.684;23.356;2023-04-24T11:08:43;3.80;;;3.35;;
5912;SDS011;2982;42.684;23.356;2023-04-24T11:11:10;5.45;;;3.47;;
5912;SDS011;2982;42.684;23.356;2023-04-24T11:18:59;7.88;;;3.83;;
5912;SDS011;2982;42.684;23.356;2023-04-24T11:21:25;6.95;;;3.30;;
5912;SDS011;2982;42.684;23.356;2023-04-24T11:23:50;5.35;;;3.60;;
5912;SDS011;2982;42.684;23.356;2023-04-24T11:26:20;4.53;;;3.40;;
5912;SDS011;2982;42.684;23.356;2023-04-24T11:28:47;7.57;;;3.25;;
5912;SDS011;2982;42.684;23.356;2023-04-24T11:34:11;4.78;;;3.35;;
5912;SDS011;2982;42.684;23.356;2023-04-24T11:36:37;4.88;;;3.30;;
5912;SDS011;2982;42.684;23.356;2023-04-24T11:39:03;3.70;;;3.40;;
5912;SDS011;2982;42.684;23.356;2023-04-24T11:41:28;3.90;;;3.60;;
5912;SDS011;2982;42.684;23.356;2023-04-24T11:43:54;3.47;;;3.00;;
5912;SDS011;2982;42.684;23.356;2023-04-24T11:46:20;3.03;;;2.35;;
5912;SDS011;2982;42.684;23.356;2023-04-24T11:48:46;3.00;;;2.80;;
5912;SDS011;2982;42.684;23.356;2023-04-24T11:51:12;3.25;;;2.40;;
5912;SDS011;2982;42.684;23.356;2023-04-24T11:53:37;2.38;;;2.15;;
5912;SDS011;2982;42.684;23.356;2023-04-24T11:56:03;3.08;;;2.83;;
5912;SDS011;2982;42.684;23.356;2023-04-24T11:58:34;2.97;;;2.83;;
5912;SDS011;2982;42.684;23.356;2023-04-24T12:01:05;3.95;;;3.17;;
5912;SDS011;2982;42.684;23.356;2023-04-24T12:03:30;5.00;;;3.28;;
5912;SDS011;2982;42.684;23.356;2023-04-24T12:06:06;4.68;;;3.20;;
5912;SDS011;2982;42.684;23.356;2023-04-24T12:08:32;3.30;;;3.00;;
5912;SDS011;2982;42.684;23.356;2023-04-24T12:10:57;5.28;;;3.25;;
5912;SDS011;2982;42.684;23.356;2023-04-24T12:13:23;2.30;;;2.20;;
5912;SDS011;2982;42.684;23.356;2023-04-24T12:15:50;3.03;;;2.75;;
5912;SDS011;2982;42.684;23.356;2023-04-24T12:18:15;5.88;;;3.10;;
5912;SDS011;2982;42.684;23.356;2023-04-24T12:20:41;4.20;;;2.88;;
5912;SDS011;2982;42.684;23.356;2023-04-24T12:23:06;3.22;;;3.05;;
5912;SDS011;2982;42.684;23.356;2023-04-24T12:25:32;5.55;;;2.75;;
5912;SDS011;2982;42.684;23.356;2023-04-24T12:30:29;4.85;;;2.88;;
5912;SDS011;2982;42.684;23.356;2023-04-24T12:32:56;3.53;;;3.25;;
5912;SDS011;2982;42.684;23.356;2023-04-24T12:35:23;2.95;;;2.70;;
5912;SDS011;2982;42.684;23.356;2023-04-24T12:37:50;4.28;;;2.55;;
5912;SDS011;2982;42.684;23.356;2023-04-24T12:40:16;2.97;;;2.25;;
5912;SDS011;2982;42.684;23.356;2023-04-24T12:42:45;2.33;;;2.10;;
5912;SDS011;2982;42.684;23.356;2023-04-24T12:45:12;2.30;;;2.10;;
5912;SDS011;2982;42.684;23.356;2023-04-24T12:47:38;3.17;;;2.22;;
5912;SDS011;2982;42.684;23.356;2023-04-24T12:50:04;5.00;;;2.30;;
5912;SDS011;2982;42.684;23.356;2023-04-24T12:52:31;2.78;;;2.58;;
5912;SDS011;2982;42.684;23.356;2023-04-24T12:54:57;2.95;;;2.75;;
5912;SDS011;2982;42.684;23.356;2023-04-24T12:57:24;5.22;;;2.42;;
5912;SDS011;2982;42.684;23.356;2023-04-24T12:59:53;2.90;;;2.33;;
5912;SDS011;2982;42.684;23.356;2023-04-24T13:02:20;3.75;;;2.55;;
5912;SDS011;2982;42.684;23.356;2023-04-24T13:04:45;3.20;;;2.90;;
5912;SDS011;2982;42.684;23.356;2023-04-24T13:07:11;4.68;;;2.83;;
5912;SDS011;2982;42.684;23.356;2023-04-24T13:09:37;2.80;;;2.60;;
5912;SDS011;2982;42.684;23.356;2023-04-24T13:12:02;4.43;;;2.83;;
5912;SDS011;2982;42.684;23.356;2023-04-24T13:14:28;3.95;;;3.20;;
5912;SDS011;2982;42.684;23.356;2023-04-24T13:16:53;3.50;;;3.30;;
5912;SDS011;2982;42.684;23.356;2023-04-24T13:19:18;3.38;;;3.17;;
5912;SDS011;2982;42.684;23.356;2023-04-24T13:21:44;5.30;;;3.33;;
5912;SDS011;2982;42.684;23.356;2023-04-24T13:24:09;7.43;;;2.85;;
5912;SDS011;2982;42.684;23.356;2023-04-24T13:26:35;3.03;;;2.83;;
5912;SDS011;2982;42.684;23.356;2023-04-24T13:29:00;3.28;;;2.45;;
5912;SDS011;2982;42.684;23.356;2023-04-24T13:31:25;2.67;;;2.58;;
5912;SDS011;2982;42.684;23.356;2023-04-24T13:33:50;4.03;;;3.28;;
5912;SDS011;2982;42.684;23.356;2023-04-24T13:36:16;3.13;;;2.75;;
5912;SDS011;2982;42.684;23.356;2023-04-24T13:38:41;6.65;;;3.10;;
5912;SDS011;2982;42.684;23.356;2023-04-24T13:41:06;2.67;;;2.47;;
5912;SDS011;2982;42.684;23.356;2023-04-24T13:43:32;3.67;;;2.95;;
5912;SDS011;2982;42.684;23.356;2023-04-24T13:45:57;3.88;;;3.05;;
5912;SDS011;2982;42.684;23.356;2023-04-24T13:48:22;4.50;;;2.80;;
5912;SDS011;2982;42.684;23.356;2023-04-24T13:50:47;5.38;;;3.45;;
5912;SDS011;2982;42.684;23.356;2023-04-24T13:53:13;5.68;;;3.25;;
5912;SDS011;2982;42.684;23.356;2023-04-24T13:55:38;3.47;;;2.97;;
5912;SDS011;2982;42.684;23.356;2023-04-24T13:58:03;3.80;;;3.40;;
5912;SDS011;2982;42.684;23.356;2023-04-24T14:00:29;3.35;;;2.95;;
5912;SDS011;2982;42.684;23.356;2023-04-24T14:02:54;3.60;;;3.30;;
5912;SDS011;2982;42.684;23.356;2023-04-24T14:05:19;3.47;;;3.17;;
5912;SDS011;2982;42.684;23.356;2023-04-24T14:07:45;3.78;;;3.00;;
5912;SDS011;2982;42.684;23.356;2023-04-24T14:10:10;7.55;;;3.75;;
5912;SDS011;2982;42.684;23.356;2023-04-24T14:12:35;3.65;;;3.10;;
5912;SDS011;2982;42.684;23.356;2023-04-24T14:15:01;3.30;;;3.05;;
5912;SDS011;2982;42.684;23.356;2023-04-24T14:17:26;2.90;;;2.70;;
5912;SDS011;2982;42.684;23.356;2023-04-24T14:19:51;3.80;;;2.25;;
5912;SDS011;2982;42.684;23.356;2023-04-24T14:22:17;3.22;;;2.20;;
5912;SDS011;2982;42.684;23.356;2023-04-24T14:24:42;4.35;;;2.97;;
5912;SDS011;2982;42.684;23.356;2023-04-24T14:27:08;5.30;;;2.75;;
5912;SDS011;2982;42.684;23.356;2023-04-24T14:29:33;2.60;;;2.40;;
5912;SDS011;2982;42.684;23.356;2023-04-24T14:31:58;6.28;;;2.63;;
5912;SDS011;2982;42.684;23.356;2023-04-24T14:34:23;3.45;;;2.30;;
5912;SDS011;2982;42.684;23.356;2023-04-24T14:36:49;2.78;;;2.58;;
5912;SDS011;2982;42.684;23.356;2023-04-24T14:39:14;4.72;;;3.40;;
5912;SDS011;2982;42.684;23.356;2023-04-24T14:41:39;5.38;;;3.50;;
5912;SDS011;2982;42.684;23.356;2023-04-24T14:44:04;2.63;;;2.42;;
5912;SDS011;2982;42.684;23.356;2023-04-24T14:46:30;2.53;;;2.28;;
5912;SDS011;2982;42.684;23.356;2023-04-24T14:48:58;3.65;;;3.10;;
5912;SDS011;2982;42.684;23.356;2023-04-24T14:51:24;2.58;;;2.47;;
5912;SDS011;2982;42.684;23.356;2023-04-24T14:53:49;2.70;;;2.55;;
5912;SDS011;2982;42.684;23.356;2023-04-24T14:56:14;4.10;;;2.50;;
5912;SDS011;2982;42.684;23.356;2023-04-24T14:58:40;6.95;;;2.85;;
5912;SDS011;2982;42.684;23.356;2023-04-24T15:01:05;7.25;;;2.22;;
5912;SDS011;2982;42.684;23.356;2023-04-24T15:03:31;2.80;;;2.47;;
5912;SDS011;2982;42.684;23.356;2023-04-24T15:05:56;3.38;;;2.30;;
5912;SDS011;2982;42.684;23.356;2023-04-24T15:08:22;3.90;;;3.13;;
5912;SDS011;2982;42.684;23.356;2023-04-24T15:10:47;3.13;;;2.83;;
5912;SDS011;2982;42.684;23.356;2023-04-24T15:13:13;4.95;;;3.72;;